Time;durP1;ratioP1;P1;durP2;ratioP2;P2;SDS_P1;SDS_P2;PMS_P1;PMS_P2;Temp;Humidity;BMP_temperature;BMP_pressure;BME280_temperature;BME280_humidity;BME280_pressure;Samples;Min_cycle;Max_cycle;Signal;HPM_P1;HPM_P2
2020/12/12 00:00:33;;;;;;;10.77;5.88;;;4.70;93.40;;;;;;4970520;28;20092;-82
2020/12/12 00:02:58;;;;;;;11.60;7.78;;;4.70;93.00;;;;;;4987197;28;20034;-82
2020/12/12 00:05:24;;;;;;;13.18;9.60;;;4.70;93.00;;;;;;4961542;28;20426;-82
2020/12/12 00:07:49;;;;;;;15.90;9.60;;;4.70;93.10;;;;;;4970836;28;20027;-82
2020/12/12 00:10:15;;;;;;;14.32;10.45;;;4.60;93.10;;;;;;4987968;28;20425;-81
2020/12/12 00:12:41;;;;;;;12.93;9.02;;;4.60;93.10;;;;;;4987385;28;20482;-82
2020/12/12 00:15:07;;;;;;;13.43;8.23;;;4.60;93.10;;;;;;4957483;28;20035;-82
2020/12/12 00:17:32;;;;;;;13.02;8.55;;;4.70;93.20;;;;;;4974157;28;20100;-81
2020/12/12 00:19:58;;;;;;;12.48;8.73;;;4.70;93.20;;;;;;4991533;28;20510;-81
2020/12/12 00:22:23;;;;;;;15.90;9.45;;;4.70;93.60;;;;;;4975830;28;20088;-81
2020/12/12 00:24:49;;;;;;;12.95;9.80;;;4.70;93.20;;;;;;4975094;28;20108;-82
2020/12/12 00:27:14;;;;;;;14.95;9.88;;;4.70;93.20;;;;;;4974717;28;20478;-82
2020/12/12 00:29:40;;;;;;;13.52;9.23;;;4.70;93.20;;;;;;4975004;28;20027;-82
2020/12/12 00:32:05;;;;;;;13.52;9.35;;;4.70;93.20;;;;;;4973923;28;20026;-81
2020/12/12 00:34:31;;;;;;;13.23;8.60;;;4.70;93.30;;;;;;4956776;28;20025;-82
2020/12/12 00:36:56;;;;;;;14.88;10.38;;;4.70;93.30;;;;;;4981085;28;20054;-81
2020/12/12 00:39:22;;;;;;;14.10;9.38;;;4.80;93.30;;;;;;4975701;28;20030;-81
2020/12/12 00:41:48;;;;;;;11.63;8.15;;;4.80;93.20;;;;;;4974383;28;20026;-82
2020/12/12 00:44:14;;;;;;;10.75;7.82;;;4.90;93.00;;;;;;4956299;28;20682;-82
2020/12/12 00:46:40;;;;;;;11.35;7.20;;;4.90;93.00;;;;;;4941785;28;20027;-80
2020/12/12 00:49:06;;;;;;;12.05;8.27;;;4.90;93.00;;;;;;4973474;28;20034;-80
2020/12/12 00:51:32;;;;;;;12.75;8.05;;;4.90;93.10;;;;;;4974088;28;20030;-81
2020/12/12 00:53:57;;;;;;;12.07;7.90;;;4.90;93.10;;;;;;4990499;28;20045;-81
2020/12/12 00:56:23;;;;;;;12.05;7.70;;;5.00;93.20;;;;;;4990008;28;20128;-81
2020/12/12 00:58:48;;;;;;;12.80;7.70;;;5.00;93.10;;;;;;4974140;28;20034;-81
2020/12/12 01:01:14;;;;;;;14.30;8.30;;;5.00;93.40;;;;;;4973856;28;20658;-81
2020/12/12 01:03:43;;;;;;;12.48;8.75;;;5.00;93.00;;;;;;4957965;28;20046;-81
2020/12/12 01:06:10;;;;;;;12.93;8.23;;;5.10;93.10;;;;;;4965796;28;20718;-81
2020/12/12 01:08:36;;;;;;;11.65;7.95;;;5.10;93.20;;;;;;4974383;28;20381;-82
2020/12/12 01:11:02;;;;;;;12.38;8.68;;;5.10;93.20;;;;;;4973851;28;20035;-82
2020/12/12 01:13:28;;;;;;;11.65;7.82;;;5.00;93.20;;;;;;4986495;28;20494;-82
2020/12/12 01:15:53;;;;;;;14.18;10.10;;;5.10;93.20;;;;;;4972329;28;20033;-81
2020/12/12 01:18:18;;;;;;;12.20;8.70;;;5.10;93.30;;;;;;4972780;28;20042;-82
2020/12/12 01:20:44;;;;;;;15.25;9.40;;;5.10;93.10;;;;;;4972675;28;20093;-82
2020/12/12 01:23:09;;;;;;;11.13;8.00;;;5.20;93.20;;;;;;4973949;28;20485;-82
2020/12/12 01:25:37;;;;;;;14.07;9.15;;;5.10;93.20;;;;;;4989304;28;20033;-82
2020/12/12 01:28:04;;;;;;;14.00;7.53;;;5.20;93.40;;;;;;4972096;28;20122;-82
2020/12/12 01:30:30;;;;;;;14.23;9.73;;;5.20;93.70;;;;;;4974101;28;20034;-82
2020/12/12 01:32:55;;;;;;;15.10;9.77;;;5.20;93.50;;;;;;4973961;28;20516;-82
2020/12/12 01:35:21;;;;;;;15.02;9.85;;;5.20;93.60;;;;;;4963702;28;20113;-81
2020/12/12 01:37:46;;;;;;;15.90;9.82;;;5.20;93.70;;;;;;4956185;28;20050;-82
2020/12/12 01:40:12;;;;;;;16.73;9.98;;;5.20;93.70;;;;;;4958974;28;20041;-82
2020/12/12 01:42:37;;;;;;;16.33;10.93;;;5.20;93.80;;;;;;4971597;28;20033;-81
2020/12/12 01:45:05;;;;;;;17.00;10.02;;;5.10;93.80;;;;;;4981151;28;20062;-81
2020/12/12 01:47:30;;;;;;;16.48;10.63;;;5.20;93.70;;;;;;4972809;28;20031;-81
2020/12/12 01:49:56;;;;;;;17.48;11.45;;;5.10;94.00;;;;;;4972700;28;20670;-82
2020/12/12 01:52:21;;;;;;;14.20;9.32;;;5.10;93.80;;;;;;4985931;28;20065;-82
2020/12/12 01:54:47;;;;;;;16.08;11.35;;;5.10;93.80;;;;;;4972823;28;20496;-82
2020/12/12 01:57:13;;;;;;;17.40;11.90;;;5.20;93.70;;;;;;4988430;28;20081;-81
2020/12/12 01:59:38;;;;;;;18.90;11.95;;;5.10;93.60;;;;;;4973513;28;20034;-81
2020/12/12 02:02:06;;;;;;;14.45;9.57;;;5.10;93.70;;;;;;4986492;28;20117;-82
2020/12/12 02:04:32;;;;;;;16.77;10.73;;;5.10;93.80;;;;;;4970904;28;20088;-80
2020/12/12 02:06:57;;;;;;;15.30;10.43;;;5.20;93.80;;;;;;4971879;28;20045;-81
2020/12/12 02:09:23;;;;;;;17.77;12.32;;;5.20;93.80;;;;;;4957351;28;20420;-81
2020/12/12 02:11:49;;;;;;;17.33;12.07;;;5.10;93.80;;;;;;4988119;28;20533;-81
2020/12/12 02:14:14;;;;;;;15.32;10.90;;;5.10;93.70;;;;;;4958361;28;20133;-82
2020/12/12 02:17:01;;;;;;;20.77;13.32;;;5.20;93.70;;;;;;4986587;28;20041;-82
2020/12/12 02:19:26;;;;;;;15.98;11.32;;;5.10;93.80;;;;;;4969989;28;20056;-80
2020/12/12 02:21:55;;;;;;;17.58;11.43;;;5.20;93.80;;;;;;4971903;28;20146;-81
2020/12/12 02:24:21;;;;;;;19.60;11.88;;;5.20;93.70;;;;;;4986166;28;20584;-81
2020/12/12 02:26:47;;;;;;;14.52;9.82;;;5.20;93.70;;;;;;4988217;28;20128;-81
2020/12/12 02:29:13;;;;;;;14.90;9.57;;;5.20;93.80;;;;;;4972067;28;20418;-81
2020/12/12 02:31:38;;;;;;;15.90;10.52;;;5.20;93.70;;;;;;4961793;28;20037;-81
2020/12/12 02:34:04;;;;;;;17.15;10.63;;;5.20;93.70;;;;;;4987491;28;20043;-82
2020/12/12 02:36:37;;;;;;;18.67;12.15;;;5.20;93.80;;;;;;4972576;28;20487;-82
2020/12/12 02:39:03;;;;;;;17.48;10.93;;;5.10;93.80;;;;;;4971115;28;20160;-81
2020/12/12 02:41:29;;;;;;;18.55;12.13;;;5.10;93.90;;;;;;4958556;28;20462;-81
2020/12/12 02:43:54;;;;;;;19.55;13.10;;;5.10;93.90;;;;;;4971860;28;20038;-82
2020/12/12 02:46:20;;;;;;;16.00;11.13;;;5.10;93.90;;;;;;4970666;28;20124;-82
2020/12/12 02:48:47;;;;;;;17.63;11.18;;;5.20;93.90;;;;;;4987734;28;20036;-82
2020/12/12 02:51:15;;;;;;;14.32;9.90;;;5.20;93.80;;;;;;4987366;28;20100;-82
2020/12/12 02:53:42;;;;;;;14.60;9.48;;;5.20;93.70;;;;;;4956725;28;20089;-82
2020/12/12 02:56:07;;;;;;;17.10;11.23;;;5.20;93.80;;;;;;4971420;28;20043;-83
2020/12/12 02:58:33;;;;;;;16.13;10.75;;;5.20;93.80;;;;;;4971838;28;20033;-82
2020/12/12 03:00:58;;;;;;;16.30;10.23;;;5.20;93.80;;;;;;4970431;28;20425;-82
2020/12/12 03:03:24;;;;;;;18.05;11.75;;;5.20;93.80;;;;;;4971223;28;20030;-81
2020/12/12 03:05:50;;;;;;;16.00;11.10;;;5.20;93.70;;;;;;4970046;28;20043;-81
2020/12/12 03:08:15;;;;;;;19.40;11.93;;;5.20;93.90;;;;;;4971201;28;20034;-81
2020/12/12 03:10:41;;;;;;;16.05;11.07;;;5.20;93.90;;;;;;4969907;28;20026;-81
2020/12/12 03:13:06;;;;;;;14.65;9.27;;;5.20;93.90;;;;;;4986885;28;20512;-81
2020/12/12 03:15:32;;;;;;;14.02;8.70;;;5.30;93.70;;;;;;4971679;28;20093;-81
2020/12/12 03:17:57;;;;;;;16.52;10.70;;;5.30;93.70;;;;;;4956216;28;20039;-82
2020/12/12 03:20:23;;;;;;;14.05;9.40;;;5.30;93.80;;;;;;4972007;28;21516;-82
2020/12/12 03:22:49;;;;;;;12.45;8.50;;;5.30;93.80;;;;;;4966689;28;20026;-82
2020/12/12 03:25:14;;;;;;;17.45;10.05;;;5.30;93.80;;;;;;4969774;28;20030;-82
2020/12/12 03:27:40;;;;;;;15.27;10.60;;;5.20;93.80;;;;;;4970497;28;20037;-82
2020/12/12 03:30:05;;;;;;;12.43;8.43;;;5.30;93.80;;;;;;4970850;28;20027;-82
2020/12/12 03:32:31;;;;;;;17.23;10.73;;;5.30;93.70;;;;;;4956675;28;20041;-82
2020/12/12 03:34:57;;;;;;;16.27;9.48;;;5.30;93.90;;;;;;4970490;28;20412;-82
2020/12/12 03:37:22;;;;;;;17.95;11.55;;;5.30;93.70;;;;;;4987561;28;20105;-81
2020/12/12 03:39:48;;;;;;;18.73;10.82;;;5.30;93.80;;;;;;4971158;28;20113;-81
2020/12/12 03:42:13;;;;;;;16.88;10.60;;;5.30;93.80;;;;;;4971359;28;20121;-82
2020/12/12 03:44:41;;;;;;;18.55;12.38;;;5.40;93.90;;;;;;4962868;28;20027;-82
2020/12/12 03:47:06;;;;;;;18.48;10.98;;;5.30;93.90;;;;;;4971281;28;20022;-81
2020/12/12 03:49:33;;;;;;;16.45;10.63;;;5.40;93.80;;;;;;4957883;28;20425;-81
2020/12/12 03:51:59;;;;;;;16.73;10.85;;;5.40;93.80;;;;;;4973577;28;20034;-82
2020/12/12 03:54:24;;;;;;;15.77;10.38;;;5.40;93.90;;;;;;4971405;28;20042;-81
2020/12/12 03:56:50;;;;;;;18.63;10.40;;;5.40;93.80;;;;;;4991095;28;20382;-82
2020/12/12 03:59:15;;;;;;;17.45;11.40;;;5.40;93.70;;;;;;4975947;28;20026;-79
2020/12/12 04:01:41;;;;;;;17.25;10.98;;;5.40;93.70;;;;;;4992019;28;20370;-79
2020/12/12 04:04:07;;;;;;;18.08;12.05;;;5.40;93.80;;;;;;4974900;28;20057;-80
2020/12/12 04:06:33;;;;;;;17.75;11.13;;;5.40;93.80;;;;;;4960127;28;20486;-80
2020/12/12 04:08:59;;;;;;;14.00;9.20;;;5.40;93.70;;;;;;4975240;28;20482;-79
2020/12/12 04:11:24;;;;;;;16.30;10.55;;;5.40;93.70;;;;;;4973981;28;20439;-80
2020/12/12 04:13:50;;;;;;;13.48;8.70;;;5.40;93.70;;;;;;4974406;28;20080;-80
2020/12/12 04:16:15;;;;;;;17.13;10.57;;;5.50;93.70;;;;;;4990765;28;20466;-80
2020/12/12 04:18:41;;;;;;;14.02;8.60;;;5.50;93.80;;;;;;4959705;28;20033;-79
2020/12/12 04:21:09;;;;;;;17.10;10.15;;;5.50;93.70;;;;;;4961524;28;20125;-79
2020/12/12 04:23:35;;;;;;;14.35;9.25;;;5.50;93.70;;;;;;4973685;28;20394;-79
2020/12/12 04:26:01;;;;;;;15.63;10.18;;;5.50;93.80;;;;;;4975307;28;20034;-79
2020/12/12 04:28:27;;;;;;;13.85;8.63;;;5.50;93.60;;;;;;4965060;28;20041;-80
2020/12/12 04:30:52;;;;;;;13.02;9.13;;;5.60;93.70;;;;;;4959634;28;20031;-79
2020/12/12 04:33:18;;;;;;;14.65;9.35;;;5.60;93.70;;;;;;4971515;28;20868;-79
2020/12/12 04:35:43;;;;;;;15.68;10.30;;;5.50;93.70;;;;;;4989656;28;20039;-80
2020/12/12 04:38:09;;;;;;;14.70;8.88;;;5.50;93.80;;;;;;4974408;28;20038;-80
2020/12/12 04:40:34;;;;;;;16.00;10.50;;;5.60;93.70;;;;;;4960932;28;20062;-80
2020/12/12 04:43:01;;;;;;;14.68;9.57;;;5.60;93.70;;;;;;4990548;28;20065;-80
2020/12/12 04:45:27;;;;;;;13.52;8.73;;;5.60;93.70;;;;;;4958230;28;20045;-79
2020/12/12 04:47:52;;;;;;;16.35;10.30;;;5.60;93.60;;;;;;4974386;28;20035;-80
2020/12/12 04:50:18;;;;;;;12.68;8.75;;;5.60;93.70;;;;;;4962280;28;20042;-80
2020/12/12 04:52:44;;;;;;;12.32;8.77;;;5.60;93.60;;;;;;4990621;28;20034;-80
2020/12/12 04:55:10;;;;;;;14.20;10.18;;;5.60;93.90;;;;;;4973845;28;20022;-80
2020/12/12 04:57:36;;;;;;;18.13;10.70;;;5.70;93.70;;;;;;4974354;28;20034;-80
2020/12/12 05:00:09;;;;;;;16.63;10.93;;;5.60;93.70;;;;;;4974431;28;20760;-80
2020/12/12 05:02:35;;;;;;;17.92;11.10;;;5.60;93.80;;;;;;4970416;28;20037;-80
2020/12/12 05:05:00;;;;;;;19.10;10.13;;;5.60;93.80;;;;;;4973224;28;20038;-80
2020/12/12 05:07:26;;;;;;;16.95;10.85;;;5.70;93.70;;;;;;4972162;28;20034;-80
2020/12/12 05:09:51;;;;;;;13.98;9.80;;;5.70;93.70;;;;;;4973572;28;20041;-78
2020/12/12 05:12:17;;;;;;;15.80;10.38;;;5.70;93.70;;;;;;4972681;28;20041;-78
2020/12/12 05:14:50;;;;;;;15.02;9.02;;;5.70;93.60;;;;;;4990109;28;20501;-78
2020/12/12 05:17:15;;;;;;;16.40;10.23;;;5.70;93.70;;;;;;4963590;28;20077;-79
2020/12/12 05:19:41;;;;;;;13.60;8.93;;;5.70;93.60;;;;;;4973028;28;20022;-78
2020/12/12 05:22:07;;;;;;;14.07;8.85;;;5.70;93.60;;;;;;4958212;28;20033;-79
2020/12/12 05:24:33;;;;;;;12.57;8.90;;;5.70;93.60;;;;;;4971817;28;20037;-78
2020/12/12 05:26:59;;;;;;;16.77;10.57;;;5.70;93.70;;;;;;4967461;28;20474;-78
2020/12/12 05:29:25;;;;;;;16.85;9.85;;;5.80;93.60;;;;;;4960185;28;20096;-78
2020/12/12 05:31:51;;;;;;;15.07;9.63;;;5.70;93.70;;;;;;4973575;28;20772;-78
2020/12/12 05:34:16;;;;;;;18.23;10.25;;;5.70;93.70;;;;;;4971007;28;20030;-78
2020/12/12 05:36:43;;;;;;;16.27;10.80;;;5.80;93.70;;;;;;4962071;28;20038;-79
2020/12/12 05:39:13;;;;;;;13.43;9.52;;;5.80;93.60;;;;;;4963247;28;20030;-79
2020/12/12 05:41:39;;;;;;;16.52;9.95;;;5.80;93.60;;;;;;4972086;28;20367;-78
2020/12/12 05:44:04;;;;;;;15.10;9.05;;;5.80;93.60;;;;;;4973109;28;20120;-78
2020/12/12 05:46:39;;;;;;;16.92;8.70;;;5.80;93.50;;;;;;4985833;28;20150;-79
2020/12/12 05:49:04;;;;;;;13.07;8.20;;;5.80;93.70;;;;;;4937992;28;20085;-78
2020/12/12 05:51:31;;;;;;;15.68;9.75;;;5.80;93.60;;;;;;4962228;28;20046;-79
2020/12/12 05:53:56;;;;;;;15.35;10.48;;;5.80;93.60;;;;;;4972337;28;20125;-80
2020/12/12 05:56:26;;;;;;;13.70;9.93;;;5.80;93.60;;;;;;4972700;28;20109;-78
2020/12/12 05:58:52;;;;;;;18.98;10.80;;;5.90;93.60;;;;;;4955517;28;20062;-77
2020/12/12 06:01:22;;;;;;;17.52;11.02;;;5.90;93.70;;;;;;4989243;28;20382;-78
2020/12/12 06:04:07;;;;;;;15.20;9.05;;;5.90;93.70;;;;;;4970453;28;20041;-79
2020/12/12 06:06:33;;;;;;;14.82;9.65;;;5.90;93.70;;;;;;4953336;28;20489;-79
2020/12/12 06:09:00;;;;;;;17.95;11.07;;;5.90;93.70;;;;;;4971459;28;20039;-78
2020/12/12 06:11:28;;;;;;;16.35;9.95;;;5.90;93.70;;;;;;4959422;28;20042;-79
2020/12/12 06:13:55;;;;;;;17.55;11.13;;;5.90;93.70;;;;;;4988082;28;20481;-78
2020/12/12 06:16:20;;;;;;;15.02;8.70;;;5.90;93.70;;;;;;4972269;28;20141;-78
2020/12/12 06:19:15;;;;;;;15.25;9.63;;;6.00;93.70;;;;;;4971122;28;20461;-79
2020/12/12 06:21:41;;;;;;;18.00;10.45;;;5.90;93.80;;;;;;4959749;28;20045;-78
2020/12/12 06:24:09;;;;;;;16.02;10.38;;;5.90;93.70;;;;;;4972134;28;20462;-79
2020/12/12 06:26:54;;;;;;;15.48;9.93;;;5.90;93.90;;;;;;4986926;28;20038;-79
2020/12/12 06:29:20;;;;;;;18.05;11.25;;;5.90;93.80;;;;;;4988248;28;20086;-79
2020/12/12 06:31:45;;;;;;;16.50;10.60;;;5.90;93.80;;;;;;4972098;28;20441;-79
2020/12/12 06:34:11;;;;;;;19.08;10.77;;;5.90;93.80;;;;;;4972483;28;20030;-79
2020/12/12 06:36:36;;;;;;;17.60;11.35;;;5.90;93.80;;;;;;4973127;28;20026;-79
2020/12/12 06:39:24;;;;;;;21.60;12.38;;;5.90;93.70;;;;;;4626523;28;9999599;-79
2020/12/12 06:41:52;;;;;;;20.33;12.07;;;5.90;93.90;;;;;;4983069;28;20038;-78
2020/12/12 06:44:37;;;;;;;19.17;11.38;;;5.90;93.80;;;;;;4965628;28;20038;-78
2020/12/12 06:47:04;;;;;;;17.65;11.25;;;5.90;93.80;;;;;;4980899;28;20034;-79
2020/12/12 06:49:42;;;;;;;16.55;10.50;;;6.00;93.80;;;;;;4946503;28;20114;-79
2020/12/12 06:52:29;;;;;;;21.67;11.50;;;5.90;93.80;;;;;;4955397;28;20026;-79
2020/12/12 06:55:08;;;;;;;19.17;13.07;;;5.90;93.80;;;;;;4971389;28;20174;-79
2020/12/12 06:57:42;;;;;;;15.23;9.90;;;5.90;93.80;;;;;;4986183;28;20034;-78
2020/12/12 07:00:25;;;;;;;15.32;9.85;;;5.90;93.70;;;;;;4985100;28;20034;-79
2020/12/12 07:03:04;;;;;;;20.25;12.95;;;6.00;93.70;;;;;;4983070;28;20694;-79
2020/12/12 07:05:31;;;;;;;19.83;10.98;;;6.00;93.80;;;;;;4970683;28;20038;-79
2020/12/12 07:08:01;;;;;;;18.70;11.30;;;6.00;93.70;;;;;;4971280;28;20034;-79
2020/12/12 07:10:27;;;;;;;17.40;11.73;;;5.90;93.80;;;;;;4972506;28;20437;-79
2020/12/12 07:12:52;;;;;;;19.58;10.95;;;5.90;93.90;;;;;;4971616;28;20026;-79
2020/12/12 07:15:18;;;;;;;17.98;10.85;;;5.90;93.70;;;;;;4987082;28;20686;-79
2020/12/12 07:17:43;;;;;;;17.90;10.55;;;5.90;93.80;;;;;;4987991;28;20394;-79
2020/12/12 07:20:09;;;;;;;20.15;11.57;;;6.00;93.90;;;;;;4970757;28;20554;-79
2020/12/12 07:22:34;;;;;;;17.88;10.82;;;5.90;93.90;;;;;;4968718;28;20030;-79
2020/12/12 07:25:00;;;;;;;18.05;12.10;;;5.90;93.80;;;;;;4954485;28;20109;-79
2020/12/12 07:27:26;;;;;;;24.90;13.30;;;5.90;93.90;;;;;;4967099;28;20082;-79
2020/12/12 07:29:51;;;;;;;17.70;11.13;;;5.90;94.00;;;;;;4986018;28;20091;-79
2020/12/12 07:32:17;;;;;;;18.33;11.48;;;5.90;93.90;;;;;;4978870;28;20030;-79
2020/12/12 07:34:42;;;;;;;19.58;11.25;;;5.90;93.90;;;;;;4971448;28;20101;-78
2020/12/12 07:37:09;;;;;;;23.27;14.80;;;5.90;93.90;;;;;;4970353;28;20050;-79
2020/12/12 07:39:39;;;;;;;18.80;11.05;;;5.90;94.00;;;;;;4970789;28;20035;-78
2020/12/12 07:42:05;;;;;;;18.83;12.23;;;5.90;93.90;;;;;;4956075;28;20033;-79
2020/12/12 07:44:49;;;;;;;15.95;10.68;;;5.90;94.00;;;;;;4971658;28;20710;-79
2020/12/12 07:47:14;;;;;;;19.73;11.57;;;5.90;94.10;;;;;;4969307;28;20539;-78
2020/12/12 07:49:40;;;;;;;21.98;12.80;;;5.90;94.10;;;;;;4956191;28;20101;-79
2020/12/12 07:52:08;;;;;;;16.27;11.45;;;5.90;94.20;;;;;;4971020;28;20161;-79
2020/12/12 07:54:36;;;;;;;18.58;11.50;;;5.90;94.10;;;;;;4977214;28;20048;-78
2020/12/12 07:57:02;;;;;;;17.27;11.25;;;5.90;94.10;;;;;;4971008;28;20108;-79
2020/12/12 07:59:28;;;;;;;18.55;12.27;;;5.90;94.20;;;;;;4957345;28;20040;-79
2020/12/12 08:01:58;;;;;;;16.98;11.52;;;5.90;94.10;;;;;;4961572;28;20038;-78
2020/12/12 08:04:24;;;;;;;17.45;10.80;;;5.90;94.30;;;;;;4969903;28;20121;-78
2020/12/12 08:06:50;;;;;;;19.92;12.82;;;6.00;94.10;;;;;;4957232;28;20498;-79
2020/12/12 08:09:23;;;;;;;16.55;11.25;;;6.00;94.00;;;;;;4970778;28;20054;-79
2020/12/12 08:11:58;;;;;;;16.85;11.18;;;6.00;94.00;;;;;;4963268;28;20050;-79
2020/12/12 08:14:24;;;;;;;16.90;10.93;;;6.00;94.10;;;;;;4953132;28;20129;-78
2020/12/12 08:16:55;;;;;;;17.77;11.40;;;6.00;94.10;;;;;;4970403;28;20121;-78
2020/12/12 08:19:20;;;;;;;19.42;11.52;;;6.10;94.10;;;;;;4956261;28;20085;-78
2020/12/12 08:21:48;;;;;;;17.70;10.82;;;6.00;94.20;;;;;;4986651;28;20031;-79
2020/12/12 08:24:13;;;;;;;22.35;12.85;;;6.00;94.20;;;;;;4970429;28;20031;-77
2020/12/12 08:26:40;;;;;;;20.35;12.43;;;6.10;94.40;;;;;;4968307;28;20050;-78
2020/12/12 08:29:05;;;;;;;21.05;13.25;;;6.10;94.40;;;;;;4967529;28;20035;-78
2020/12/12 08:31:38;;;;;;;22.35;13.65;;;6.10;94.30;;;;;;4969496;28;20031;-77
2020/12/12 08:34:04;;;;;;;24.60;13.93;;;6.10;94.20;;;;;;4952336;28;21013;-77
2020/12/12 08:36:30;;;;;;;17.52;11.20;;;6.10;94.30;;;;;;4986006;28;20033;-76
2020/12/12 08:39:00;;;;;;;18.50;11.82;;;6.10;94.10;;;;;;4971973;28;20034;-76
2020/12/12 08:41:33;;;;;;;17.30;11.73;;;6.10;94.10;;;;;;4989286;28;20034;-76
2020/12/12 08:43:59;;;;;;;15.38;10.32;;;6.10;94.10;;;;;;4984285;28;20429;-76
2020/12/12 08:46:24;;;;;;;19.33;11.75;;;6.20;94.10;;;;;;4987669;28;20141;-77
2020/12/12 08:48:50;;;;;;;17.58;11.27;;;6.20;94.20;;;;;;4971423;28;20524;-77
2020/12/12 08:51:25;;;;;;;16.02;10.70;;;6.10;94.20;;;;;;4970491;28;20034;-79
2020/12/12 08:53:51;;;;;;;20.10;12.68;;;6.20;94.20;;;;;;4986628;28;20054;-77
2020/12/12 08:56:23;;;;;;;20.10;12.02;;;6.20;94.30;;;;;;4989294;28;20450;-77
2020/12/12 08:59:02;;;;;;;19.67;12.57;;;6.20;94.30;;;;;;4986264;28;20038;-78
2020/12/12 09:01:28;;;;;;;24.08;14.32;;;6.20;94.30;;;;;;4970586;28;20465;-78
2020/12/12 09:04:00;;;;;;;16.70;10.73;;;6.20;94.30;;;;;;4988303;28;20041;-77
2020/12/12 09:06:30;;;;;;;20.67;11.88;;;6.20;94.30;;;;;;4972271;28;20034;-78
2020/12/12 09:09:23;;;;;;;20.10;12.82;;;6.20;94.30;;;;;;4972056;28;20039;-77
2020/12/12 09:12:07;;;;;;;16.67;11.13;;;6.20;94.30;;;;;;4969859;28;20042;-77
2020/12/12 09:14:41;;;;;;;18.38;11.07;;;6.30;94.40;;;;;;4970704;28;20062;-77
2020/12/12 09:17:09;;;;;;;16.10;9.60;;;6.30;94.30;;;;;;4987945;28;20395;-77
2020/12/12 09:19:34;;;;;;;18.42;11.73;;;6.30;94.20;;;;;;4989821;28;20080;-78
2020/12/12 09:22:00;;;;;;;21.02;12.15;;;6.30;94.20;;;;;;4973216;28;20045;-78
2020/12/12 09:24:26;;;;;;;17.00;12.05;;;6.40;94.30;;;;;;4956454;28;20027;-78
2020/12/12 09:26:54;;;;;;;16.83;10.82;;;6.30;94.30;;;;;;4972637;28;20506;-78
2020/12/12 09:29:19;;;;;;;14.68;10.63;;;6.40;94.30;;;;;;4970470;28;20034;-78
2020/12/12 09:31:46;;;;;;;13.50;9.57;;;6.40;94.30;;;;;;4973162;28;20417;-77
2020/12/12 09:34:11;;;;;;;16.05;10.60;;;6.50;94.20;;;;;;4972549;28;20721;-78
2020/12/12 09:36:37;;;;;;;16.27;9.88;;;6.50;94.30;;;;;;4961343;28;20057;-78
2020/12/12 09:39:03;;;;;;;14.50;9.43;;;6.50;94.10;;;;;;4988340;28;20065;-77
2020/12/12 09:41:29;;;;;;;19.00;11.48;;;6.60;94.20;;;;;;4964783;28;20042;-77
2020/12/12 09:43:54;;;;;;;13.38;10.07;;;6.60;94.20;;;;;;4972059;28;20059;-77
2020/12/12 09:46:21;;;;;;;12.95;10.02;;;6.70;94.20;;;;;;4964844;28;20572;-77
2020/12/12 09:48:47;;;;;;;14.35;9.52;;;6.70;94.10;;;;;;4955399;28;20022;-77
2020/12/12 09:51:14;;;;;;;15.55;10.35;;;6.70;94.10;;;;;;4988726;28;20030;-78
2020/12/12 09:53:39;;;;;;;15.48;8.88;;;6.80;94.10;;;;;;4984880;28;20039;-77
2020/12/12 09:56:05;;;;;;;12.90;8.68;;;6.80;94.00;;;;;;4978151;28;20058;-77
2020/12/12 09:58:31;;;;;;;13.18;9.25;;;6.80;94.00;;;;;;4972694;28;20764;-77
2020/12/12 10:00:56;;;;;;;13.48;8.32;;;6.90;94.10;;;;;;4953879;28;20055;-78
2020/12/12 10:03:22;;;;;;;13.30;8.45;;;6.90;94.10;;;;;;4984382;28;20045;-78
2020/12/12 10:05:47;;;;;;;12.35;9.07;;;6.90;94.20;;;;;;4973405;28;20393;-78
2020/12/12 10:08:13;;;;;;;12.63;9.00;;;6.90;94.30;;;;;;4970252;28;20034;-78
2020/12/12 10:10:38;;;;;;;10.43;7.53;;;7.00;94.00;;;;;;4973340;28;20030;-78
2020/12/12 10:13:04;;;;;;;9.98;7.32;;;7.00;94.20;;;;;;4973084;28;20398;-78
2020/12/12 10:15:29;;;;;;;10.65;8.25;;;7.00;93.80;;;;;;4960253;28;20444;-77
2020/12/12 10:17:55;;;;;;;12.38;7.75;;;7.00;93.90;;;;;;4971667;28;20030;-78
2020/12/12 10:20:22;;;;;;;11.30;7.28;;;7.00;93.70;;;;;;4988908;28;20026;-78
2020/12/12 10:22:47;;;;;;;11.32;7.70;;;7.00;94.20;;;;;;4987659;28;20038;-77
2020/12/12 10:25:13;;;;;;;10.55;6.43;;;7.00;93.90;;;;;;4977581;28;20049;-78
2020/12/12 10:27:38;;;;;;;12.45;7.97;;;7.00;93.90;;;;;;4971521;28;20030;-78
2020/12/12 10:30:06;;;;;;;8.55;5.78;;;7.10;94.10;;;;;;4971733;28;20475;-77
2020/12/12 10:32:31;;;;;;;9.27;6.55;;;7.00;94.00;;;;;;4971284;28;20034;-78
2020/12/12 10:34:57;;;;;;;9.77;6.20;;;7.00;94.00;;;;;;4971153;28;20049;-77
2020/12/12 10:37:22;;;;;;;9.65;5.57;;;6.90;94.00;;;;;;4988430;28;20034;-77
2020/12/12 10:40:08;;;;;;;10.18;6.15;;;7.00;94.40;;;;;;4971619;28;20041;-78
2020/12/12 10:42:34;;;;;;;6.40;5.40;;;7.00;93.90;;;;;;4971051;28;20038;-77
2020/12/12 10:45:00;;;;;;;7.75;5.53;;;7.00;94.00;;;;;;4970027;28;20030;-77
2020/12/12 10:47:26;;;;;;;9.02;5.50;;;7.00;93.80;;;;;;4968940;28;20405;-78
2020/12/12 10:49:51;;;;;;;7.47;5.72;;;7.00;93.90;;;;;;4972104;28;20371;-77
2020/12/12 10:52:17;;;;;;;8.73;4.90;;;7.00;93.80;;;;;;4964997;28;20019;-78
2020/12/12 10:54:46;;;;;;;9.32;5.35;;;7.00;93.90;;;;;;4957037;28;20030;-77
2020/12/12 10:57:13;;;;;;;8.57;5.18;;;7.00;94.10;;;;;;4974524;28;20034;-78
2020/12/12 10:59:42;;;;;;;7.03;5.47;;;6.90;94.00;;;;;;4971200;28;21654;-77
2020/12/12 11:02:14;;;;;;;8.27;6.07;;;7.00;94.00;;;;;;4969944;28;20113;-77
2020/12/12 11:04:40;;;;;;;7.45;5.03;;;7.00;94.10;;;;;;4967165;28;20042;-77
2020/12/12 11:07:06;;;;;;;6.95;5.32;;;7.00;93.80;;;;;;4988078;28;20050;-78
2020/12/12 11:09:32;;;;;;;8.48;6.00;;;7.10;93.90;;;;;;4961814;28;20084;-77
2020/12/12 11:11:57;;;;;;;7.43;5.60;;;7.10;94.00;;;;;;4962042;28;20168;-78
2020/12/12 11:14:24;;;;;;;8.35;5.70;;;7.10;93.90;;;;;;4979042;28;20045;-77
2020/12/12 11:16:50;;;;;;;8.52;5.38;;;7.10;93.90;;;;;;4985526;28;20070;-78
2020/12/12 11:19:16;;;;;;;9.40;6.55;;;7.20;93.90;;;;;;4988887;28;20077;-79
2020/12/12 11:21:42;;;;;;;7.47;6.25;;;7.20;94.10;;;;;;4972309;28;20082;-78
2020/12/12 11:24:08;;;;;;;9.13;5.80;;;7.20;93.90;;;;;;4970279;28;20137;-78
2020/12/12 11:26:34;;;;;;;9.13;6.47;;;7.30;94.00;;;;;;4971138;28;20486;-78
2020/12/12 11:28:59;;;;;;;6.57;4.88;;;7.30;93.90;;;;;;4957037;28;20033;-78
2020/12/12 11:31:25;;;;;;;7.57;5.63;;;7.30;93.90;;;;;;4971829;28;20359;-78
2020/12/12 11:33:57;;;;;;;8.18;5.00;;;7.30;93.70;;;;;;4971041;28;20034;-78
2020/12/12 11:36:47;;;;;;;8.88;5.22;;;7.40;93.90;;;;;;4962481;28;20170;-78
2020/12/12 11:39:17;;;;;;;7.15;5.15;;;7.40;94.00;;;;;;4971267;28;20037;-78
2020/12/12 11:42:01;;;;;;;7.50;4.57;;;7.40;93.70;;;;;;4972356;28;20600;-78
2020/12/12 11:47:03;;;;;;;6.78;4.72;;;7.50;93.90;;;;;;4971254;28;20386;-77
2020/12/12 11:49:28;;;;;;;6.38;4.38;;;7.60;93.80;;;;;;4963846;28;20039;-78
2020/12/12 11:51:54;;;;;;;6.57;4.63;;;7.60;93.70;;;;;;4971288;28;20034;-78
2020/12/12 11:54:19;;;;;;;9.43;5.75;;;7.60;93.90;;;;;;4976690;28;20031;-78
2020/12/12 11:56:51;;;;;;;6.70;4.88;;;7.60;93.90;;;;;;4987580;28;20033;-78
2020/12/12 11:59:17;;;;;;;7.40;4.65;;;7.70;93.90;;;;;;4987524;28;20331;-78
2020/12/12 12:01:42;;;;;;;7.20;5.22;;;7.70;93.80;;;;;;4974097;28;20473;-79
2020/12/12 12:04:08;;;;;;;6.97;5.00;;;7.80;93.70;;;;;;4970745;28;20050;-78
2020/12/12 12:06:33;;;;;;;5.70;4.35;;;7.90;93.80;;;;;;4971160;28;20088;-77
2020/12/12 12:11:32;;;;;;;5.47;4.43;;;7.90;93.40;;;;;;4968544;28;20474;-78
2020/12/12 12:14:04;;;;;;;6.22;5.00;;;7.90;93.40;;;;;;4983847;28;20038;-78
2020/12/12 12:16:36;;;;;;;5.72;4.20;;;8.00;93.50;;;;;;4632720;28;10000610;-79
2020/12/12 12:19:15;;;;;;;5.45;4.43;;;8.00;93.30;;;;;;4952806;28;20242;-78
2020/12/12 12:21:42;;;;;;;7.88;4.68;;;8.00;93.50;;;;;;4970904;28;20121;-78
2020/12/12 12:24:14;;;;;;;6.20;4.45;;;8.00;93.30;;;;;;4986460;28;20482;-78
2020/12/12 12:26:40;;;;;;;5.43;3.97;;;8.10;93.40;;;;;;4960092;28;20509;-78
2020/12/12 12:29:06;;;;;;;6.72;4.03;;;8.20;93.60;;;;;;4986481;28;20038;-79
2020/12/12 12:31:32;;;;;;;10.65;4.88;;;8.20;93.30;;;;;;4961219;28;20045;-79
2020/12/12 12:33:57;;;;;;;8.55;5.30;;;8.20;93.30;;;;;;4967803;28;20042;-79
2020/12/12 12:36:25;;;;;;;7.90;5.65;;;8.20;93.30;;;;;;4971921;28;20037;-79
2020/12/12 12:38:51;;;;;;;7.55;4.97;;;8.40;93.50;;;;;;4972198;28;20034;-79
2020/12/12 12:41:17;;;;;;;7.50;4.70;;;8.40;93.40;;;;;;4971399;28;20585;-79
2020/12/12 12:43:43;;;;;;;7.93;4.88;;;8.40;93.10;;;;;;4971561;28;20069;-80
2020/12/12 12:46:09;;;;;;;5.57;4.40;;;8.40;93.30;;;;;;4971341;28;20092;-78
2020/12/12 12:48:35;;;;;;;7.00;4.38;;;8.50;93.30;;;;;;4973373;28;20045;-79